createdAt,value
2019-03-22T00:04:23.670Z,14.63
2019-03-22T00:09:31.015Z,17.87
2019-03-22T00:14:38.440Z,19.05
2019-03-22T00:19:45.783Z,19.55
2019-03-22T00:24:53.230Z,18.27
2019-03-22T00:30:00.598Z,19.40
2019-03-22T00:35:08.577Z,21.68
2019-03-22T00:40:17.464Z,18.17
2019-03-22T00:45:24.851Z,15.23
2019-03-22T00:50:32.213Z,13.90
2019-03-22T00:55:39.404Z,14.60
2019-03-22T01:00:46.739Z,15.30
2019-03-22T01:05:54.167Z,14.70
2019-03-22T01:11:01.527Z,15.38
2019-03-22T01:16:08.866Z,16.55
2019-03-22T01:21:16.128Z,16.25
2019-03-22T01:26:23.453Z,17.67
2019-03-22T01:31:30.768Z,17.05
2019-03-22T01:36:38.185Z,17.07
2019-03-22T01:41:45.753Z,16.67
2019-03-22T01:46:53.180Z,16.48
2019-03-22T01:52:00.601Z,16.12
2019-03-22T01:57:07.958Z,15.45
2019-03-22T02:02:15.236Z,19.50
2019-03-22T02:07:22.675Z,15.15
2019-03-22T02:12:30.199Z,16.95
2019-03-22T02:17:37.618Z,17.80
2019-03-22T02:22:45.243Z,18.85
2019-03-22T02:28:03.517Z,17.82
2019-03-22T02:33:01.757Z,19.20
2019-03-22T02:38:09.118Z,19.90
2019-03-22T02:43:16.409Z,17.67
2019-03-22T02:48:23.841Z,16.82
2019-03-22T02:53:31.114Z,17.30
2019-03-22T02:58:38.550Z,16.12
2019-03-22T03:03:45.898Z,15.88
2019-03-22T03:08:53.095Z,14.87
2019-03-22T03:14:00.379Z,23.00
2019-03-22T03:19:07.769Z,23.47
2019-03-22T03:24:15.191Z,20.08
2019-03-22T03:29:22.453Z,20.00
2019-03-22T03:34:29.850Z,17.60
2019-03-22T03:39:37.199Z,17.80
2019-03-22T03:44:44.612Z,15.70
2019-03-22T03:49:51.965Z,20.57
2019-03-22T03:54:59.387Z,16.40
2019-03-22T04:00:08.975Z,16.77
2019-03-22T04:05:16.493Z,15.88
2019-03-22T04:10:23.976Z,14.15
2019-03-22T04:15:31.399Z,13.13
2019-03-22T04:20:38.807Z,13.13
2019-03-22T04:25:46.246Z,13.62
2019-03-22T04:30:53.647Z,13.45
2019-03-22T04:36:01.979Z,13.55
2019-03-22T04:41:09.766Z,13.00
2019-03-22T04:46:18.664Z,13.72
2019-03-22T04:51:26.472Z,14.25
2019-03-22T04:56:37.818Z,12.93
2019-03-22T05:01:49.696Z,12.33
2019-03-22T05:06:59.304Z,13.35
2019-03-22T05:12:08.888Z,12.98
2019-03-22T05:17:17.015Z,15.88
2019-03-22T05:22:28.437Z,15.08
2019-03-22T05:27:40.162Z,15.68
2019-03-22T05:32:47.388Z,15.88
2019-03-22T05:37:54.656Z,17.30
2019-03-22T05:43:01.923Z,15.98
2019-03-22T05:48:09.490Z,15.88
2019-03-22T05:53:16.935Z,17.75
2019-03-22T05:58:25.671Z,16.60
2019-03-22T06:03:32.868Z,15.95
2019-03-22T06:08:40.232Z,17.42
2019-03-22T06:13:48.416Z,21.40
2019-03-22T06:18:55.965Z,17.17
2019-03-22T06:24:03.389Z,23.40
2019-03-22T06:29:10.877Z,21.70
2019-03-22T06:34:18.183Z,21.85
2019-03-22T06:39:25.538Z,17.40
2019-03-22T06:44:32.970Z,22.85
2019-03-22T06:49:40.237Z,22.80
2019-03-22T06:54:47.512Z,22.27
2019-03-22T07:00:05.885Z,22.13
2019-03-22T07:05:03.964Z,21.20
2019-03-22T07:10:13.002Z,19.50
2019-03-22T07:15:20.514Z,20.60
2019-03-22T07:20:27.931Z,20.85
2019-03-22T07:25:35.481Z,18.95
2019-03-22T07:30:42.909Z,18.90
2019-03-22T07:35:50.367Z,18.25
2019-03-22T07:40:57.719Z,15.83
2019-03-22T07:46:05.152Z,15.95
2019-03-22T07:51:12.499Z,15.30
2019-03-22T07:56:19.864Z,15.68
2019-03-22T08:01:27.300Z,15.23
2019-03-22T08:06:34.586Z,14.80
2019-03-22T08:11:42.514Z,15.53
2019-03-22T08:16:50.943Z,15.48
2019-03-22T08:21:58.432Z,15.63
2019-03-22T08:27:05.856Z,15.28
2019-03-22T08:32:13.563Z,14.95
2019-03-22T08:37:20.849Z,15.23
2019-03-22T08:42:28.134Z,16.42
2019-03-22T08:47:35.405Z,17.05
2019-03-22T08:52:42.873Z,19.07
2019-03-22T08:57:50.297Z,18.15
2019-03-22T09:02:57.639Z,17.48
2019-03-22T09:08:05.101Z,18.77
2019-03-22T09:13:12.534Z,18.12
2019-03-22T09:18:19.808Z,18.15
2019-03-22T09:23:27.188Z,18.45
2019-03-22T09:28:34.576Z,18.65
2019-03-22T09:33:42.115Z,21.00
2019-03-22T09:38:49.566Z,21.68
2019-03-22T09:43:56.986Z,23.92
2019-03-22T09:49:04.579Z,21.00
2019-03-22T09:54:12.150Z,21.17
2019-03-22T09:59:19.580Z,21.80
2019-03-22T10:04:27.038Z,21.70
2019-03-22T10:09:34.267Z,20.88
2019-03-22T10:14:41.733Z,18.75
2019-03-22T10:19:49.112Z,22.40
2019-03-22T10:24:56.525Z,19.45
2019-03-22T10:30:04.197Z,21.93
2019-03-22T10:35:25.393Z,23.75
2019-03-22T10:40:21.962Z,24.95
2019-03-22T10:45:29.504Z,24.27
2019-03-22T10:50:36.999Z,23.70
2019-03-22T10:55:44.415Z,24.12
2019-03-22T11:00:51.861Z,23.42
2019-03-22T11:05:59.314Z,24.77
2019-03-22T11:11:06.832Z,23.55
2019-03-22T11:16:14.278Z,24.63
2019-03-22T11:21:23.650Z,22.62
2019-03-22T11:26:31.132Z,23.50
2019-03-22T11:31:40.117Z,22.45
2019-03-22T11:36:47.953Z,24.37
2019-03-22T11:41:55.336Z,21.57
2019-03-22T11:47:02.796Z,21.62
2019-03-22T11:52:10.165Z,20.65
2019-03-22T11:57:17.629Z,20.65
2019-03-22T12:02:25.261Z,18.95
2019-03-22T12:07:32.577Z,19.37
2019-03-22T12:12:40.162Z,18.35
2019-03-22T12:17:47.719Z,16.73
2019-03-22T12:22:55.270Z,16.40
2019-03-22T12:28:02.746Z,15.88
2019-03-22T12:33:10.240Z,18.32
2019-03-22T12:38:18.934Z,13.40
2019-03-22T12:43:26.342Z,15.08
2019-03-22T12:48:33.637Z,12.20
2019-03-22T12:53:46.204Z,10.20
2019-03-22T12:58:53.881Z,9.53
2019-03-22T13:04:01.318Z,10.63
2019-03-22T13:09:10.898Z,9.20
2019-03-22T13:14:18.380Z,7.60
2019-03-22T13:19:25.782Z,8.55
2019-03-22T13:24:33.327Z,8.45
2019-03-22T13:29:40.773Z,6.53
2019-03-22T13:34:48.323Z,8.63
2019-03-22T13:39:55.767Z,6.70
2019-03-22T13:45:03.320Z,9.85
2019-03-22T13:50:12.227Z,12.65
2019-03-22T13:55:19.626Z,13.22
2019-03-22T14:00:27.281Z,13.20
2019-03-22T14:05:34.841Z,15.55
2019-03-22T14:10:42.202Z,18.57
2019-03-22T14:15:49.646Z,19.27
2019-03-22T14:20:57.192Z,19.60
2019-03-22T14:26:04.774Z,17.80
2019-03-22T14:31:12.185Z,17.92
2019-03-22T14:36:19.700Z,20.08
2019-03-22T14:41:26.998Z,20.60
2019-03-22T14:46:34.289Z,20.48
2019-03-22T14:51:41.568Z,20.48
2019-03-22T14:56:48.933Z,20.85
2019-03-22T15:01:56.229Z,21.65
2019-03-22T15:07:03.617Z,20.62
2019-03-22T15:12:11.043Z,21.42
2019-03-22T15:17:42.119Z,21.77
2019-03-22T15:23:07.183Z,20.30
2019-03-22T15:28:37.967Z,21.52
2019-03-22T15:34:13.229Z,19.67
2019-03-22T15:39:59.011Z,19.92
2019-03-22T15:45:08.628Z,21.87
2019-03-22T15:50:17.481Z,21.15
2019-03-22T15:55:24.892Z,21.60
2019-03-22T16:00:32.258Z,21.23
2019-03-22T16:05:39.726Z,21.93
2019-03-22T16:10:47.192Z,23.20
2019-03-22T16:15:54.719Z,21.85
2019-03-22T16:21:02.100Z,20.77
2019-03-22T16:26:09.956Z,21.48
2019-03-22T16:31:18.443Z,21.75
2019-03-22T16:36:25.931Z,20.92
2019-03-22T16:41:33.404Z,23.90
2019-03-22T16:46:40.718Z,24.00
2019-03-22T16:51:48.107Z,23.90
2019-03-22T16:56:55.546Z,23.98
2019-03-22T17:02:02.960Z,26.50
2019-03-22T17:07:10.317Z,29.27
2019-03-22T17:12:20.795Z,25.95
2019-03-22T17:17:29.883Z,26.00
2019-03-22T17:22:37.275Z,26.77
2019-03-22T17:27:44.742Z,27.37
2019-03-22T17:32:52.203Z,28.20
2019-03-22T17:37:59.646Z,27.98
2019-03-22T17:43:07.260Z,28.85
2019-03-22T17:48:14.735Z,29.85
2019-03-22T17:53:22.022Z,31.00
2019-03-22T17:58:29.265Z,30.50
2019-03-22T18:03:36.567Z,30.50
2019-03-22T18:08:44.037Z,28.77
2019-03-22T18:13:51.331Z,28.77
2019-03-22T18:18:58.773Z,30.97
2019-03-22T18:24:06.395Z,28.00
2019-03-22T18:29:13.769Z,28.45
2019-03-22T18:34:21.174Z,28.60
2019-03-22T18:39:28.580Z,28.62
2019-03-22T18:44:36.044Z,27.87
2019-03-22T18:49:43.404Z,28.92
2019-03-22T18:54:50.888Z,28.57
2019-03-22T18:59:58.348Z,28.75
2019-03-22T19:05:07.276Z,28.23
2019-03-22T19:10:15.009Z,30.77
2019-03-22T19:15:22.345Z,30.75
2019-03-22T19:20:30.763Z,30.65
2019-03-22T19:25:38.037Z,28.27
2019-03-22T19:30:45.425Z,26.90
2019-03-22T19:35:52.749Z,28.05
2019-03-22T19:41:00.133Z,26.95
2019-03-22T19:46:07.809Z,25.50
2019-03-22T19:51:16.409Z,21.50
2019-03-22T19:56:24.151Z,19.57
2019-03-22T20:01:31.493Z,17.02
2019-03-22T20:06:38.796Z,15.72
2019-03-22T20:11:46.168Z,14.68
2019-03-22T20:16:53.604Z,14.00
2019-03-22T20:22:01.854Z,12.00
2019-03-22T20:27:09.388Z,11.95
2019-03-22T20:32:16.942Z,12.03
2019-03-22T20:37:24.297Z,12.13
2019-03-22T20:42:31.583Z,10.08
2019-03-22T20:47:38.914Z,12.00
2019-03-22T20:52:46.279Z,11.10
2019-03-22T20:57:53.690Z,12.55
2019-03-22T21:03:01.118Z,12.30
2019-03-22T21:08:08.679Z,12.28
2019-03-22T21:13:16.242Z,12.33
2019-03-22T21:18:23.497Z,12.30
2019-03-22T21:23:36.269Z,12.33
2019-03-22T21:28:39.920Z,12.53
2019-03-22T21:33:47.213Z,12.73
2019-03-22T21:38:54.630Z,14.75
2019-03-22T21:44:02.041Z,14.35
2019-03-22T21:49:09.651Z,14.10
2019-03-22T21:54:17.305Z,15.78
2019-03-22T21:59:24.582Z,15.68
2019-03-22T22:04:31.851Z,16.48
2019-03-22T22:09:39.283Z,16.65
2019-03-22T22:14:46.635Z,17.40
2019-03-22T22:19:53.977Z,17.75
2019-03-22T22:25:01.406Z,16.32
2019-03-22T22:30:10.264Z,16.35
2019-03-22T22:35:18.866Z,15.58
2019-03-22T22:40:26.205Z,16.07
2019-03-22T22:45:33.624Z,16.67
2019-03-22T22:50:40.980Z,15.80
2019-03-22T22:55:48.271Z,14.80
2019-03-22T23:00:55.775Z,14.35
2019-03-22T23:06:09.312Z,15.38
2019-03-22T23:11:13.829Z,15.88
2019-03-22T23:16:21.187Z,15.38
2019-03-22T23:21:28.539Z,14.65
2019-03-22T23:26:35.876Z,15.50
2019-03-22T23:31:43.259Z,14.65
2019-03-22T23:36:51.687Z,13.50
2019-03-22T23:41:59.031Z,15.68
2019-03-22T23:47:06.446Z,15.18
2019-03-22T23:52:13.862Z,14.87
2019-03-22T23:57:21.280Z,15.20
